Terminal Aerodrome Forecast
Issued by NWS

Home | Current Version | Previous Version | Text Only | Print | Product List | Glossary On
Versions: 1 2 3 4 5 6 7 8 9 10 11 12 13 14 15 16 17 18
000
FTUS42 KTBW 221145
TAFPIE
TAF
KPIE 221145Z 2212/2312 13007KT P6SM FEW020 SCT250
     FM221400 15011KT P6SM SCT025 SCT100 BKN250
     FM221900 20010KT P6SM VCTS SCT040CB SCT100 BKN150
     FM230200 13006KT P6SM FEW050 SCT100 BKN250=

USA.gov is the U.S. government's official web portal to all federal, state and local government web resources and services.